Back to Top

Language: 

My Weather Underground Personal Weather Station Historical Data with Graphs...

Delerius Weather Station Historical Data
Daily Summary for February 1, 2017 Units:  Metric    English   Both
« Previous Day
Next Day »
Daily Weekly Monthly Yearly Custom
  High: Low: Average:
Temperature: 10.2 °C 6.7 °C 8.2 °C
Dew Point: 9 °C 6.5 °C 7.6 °C
Humidity: 99 % 88 % 96 %
Wind Speed: 16.1 km/h 0 km/h 6.1 km/h
Wind Gust: -1607.7 km/h - -
Wind:- - SSE
Pressure: 1008.4 hPa 997.9 hPa -
Precipitation: 2.29 mm    
Historical Graphs
 
 
Tabular Data for February 1, 2017
Time Temperature Dew Point Pressure Wind Wind Speed Wind Gust Humidity Rainfall Rate (Hourly) solar Conditions
00:01 7.2 °C 7 °C 1008.4 hPa Calm   -1607.7 km/h 99 % 0.25 mm 0 W/m2
00:06 7.2 °C 7 °C 1008.4 hPa Calm   -1607.7 km/h 99 % 0.25 mm 0 W/m2
00:11 7.2 °C 7 °C 1008.4 hPa Calm   -1607.7 km/h 99 % 0.25 mm 0 W/m2
00:16 7.2 °C 7 °C 1008.4 hPa Calm   -1607.7 km/h 99 % 0.25 mm 0 W/m2
00:21 7.2 °C 7 °C 1008.4 hPa Calm   -1607.7 km/h 99 % 0.25 mm 0 W/m2
00:26 7.2 °C 7 °C 1008 hPa Calm   -1607.7 km/h 99 % 0.25 mm 0 W/m2
00:31 7.2 °C 7 °C 1008 hPa Calm   -1607.7 km/h 99 % 0.25 mm 0 W/m2
00:36 7.2 °C 7 °C 1008 hPa Calm   -1607.7 km/h 99 % 0.25 mm 0 W/m2
00:41 7.1 °C 6.9 °C 1008 hPa Calm   -1607.7 km/h 99 % 0.25 mm 0 W/m2
00:46 7.1 °C 6.9 °C 1008 hPa Calm   -1607.7 km/h 99 % 0.25 mm 0 W/m2
00:51 7.1 °C 6.9 °C 1008 hPa Calm   -1607.7 km/h 99 % 0.25 mm 0 W/m2
00:56 7.1 °C 6.9 °C 1007.7 hPa Calm   -1607.7 km/h 99 % 0.25 mm 0 W/m2
01:01 7.1 °C 6.9 °C 1007.7 hPa Calm   -1607.7 km/h 99 % 0.25 mm 0 W/m2
01:06 7.1 °C 6.9 °C 1007.7 hPa Calm   -1607.7 km/h 99 % 0.25 mm 0 W/m2
01:11 7.1 °C 6.9 °C 1007.7 hPa SE 1.6 km/h -1607.7 km/h 99 % 0.25 mm 0 W/m2
01:16 7.1 °C 6.9 °C 1007.7 hPa SE 1.6 km/h -1607.7 km/h 99 % 0.25 mm 0 W/m2
01:21 7.1 °C 6.9 °C 1007.7 hPa SE 1.6 km/h -1607.7 km/h 99 % 0.25 mm 0 W/m2
01:26 7.1 °C 6.9 °C 1007.7 hPa East 1.6 km/h -1607.7 km/h 99 % 0.51 mm 0 W/m2
01:31 7.1 °C 6.9 °C 1007.7 hPa East 1.6 km/h -1607.7 km/h 99 % 0.51 mm 0 W/m2
01:36 7.1 °C 6.9 °C 1007.7 hPa East 1.6 km/h -1607.7 km/h 99 % 0.51 mm 0 W/m2
01:41 7.1 °C 6.9 °C 1007.7 hPa East 1.6 km/h -1607.7 km/h 99 % 0.51 mm 0 W/m2
01:46 7.1 °C 6.9 °C 1007.7 hPa East 1.6 km/h -1607.7 km/h 99 % 0.51 mm 0 W/m2
01:51 7.1 °C 6.9 °C 1007.7 hPa East 1.6 km/h -1607.7 km/h 99 % 0.51 mm 0 W/m2
01:56 7 °C 6.8 °C 1007.3 hPa East 1.6 km/h -1607.7 km/h 99 % 0.51 mm 0 W/m2
02:01 7 °C 6.8 °C 1007.3 hPa East 1.6 km/h -1607.7 km/h 99 % 0.51 mm 0 W/m2
02:06 7 °C 6.8 °C 1007.3 hPa East 1.6 km/h -1607.7 km/h 99 % 0.51 mm 0 W/m2
02:11 7 °C 6.8 °C 1007.3 hPa East 1.6 km/h -1607.7 km/h 99 % 0.76 mm 0 W/m2
02:16 7 °C 6.8 °C 1007.3 hPa East 1.6 km/h -1607.7 km/h 99 % 0.76 mm 0 W/m2
02:21 7 °C 6.8 °C 1007.3 hPa East 1.6 km/h -1607.7 km/h 99 % 0.76 mm 0 W/m2
02:26 7 °C 6.8 °C 1007.3 hPa East 1.6 km/h -1607.7 km/h 99 % 0.51 mm 0 W/m2
02:31 7 °C 6.8 °C 1007.3 hPa East 1.6 km/h -1607.7 km/h 99 % 0.51 mm 0 W/m2
02:36 7 °C 6.8 °C 1007.3 hPa East 1.6 km/h -1607.7 km/h 99 % 0.51 mm 0 W/m2
02:41 7.1 °C 6.9 °C 1007.3 hPa SE 1.6 km/h -1607.7 km/h 99 % 0.51 mm 0 W/m2
02:46 7.1 °C 6.9 °C 1007.3 hPa SE 1.6 km/h -1607.7 km/h 99 % 0.51 mm 0 W/m2
02:51 7.1 °C 6.9 °C 1007.3 hPa SE 1.6 km/h -1607.7 km/h 99 % 0.51 mm 0 W/m2
02:56 7.2 °C 7 °C 1007 hPa Calm   -1607.7 km/h 99 % 0.25 mm 0 W/m2
03:01 7.2 °C 7 °C 1007 hPa Calm   -1607.7 km/h 99 % 0.25 mm 0 W/m2
03:06 7.2 °C 7 °C 1007 hPa Calm   -1607.7 km/h 99 % 0.25 mm 0 W/m2
03:11 7.1 °C 6.9 °C 1007 hPa Calm   -1607.7 km/h 99 % 0.25 mm 0 W/m2
03:16 7.1 °C 6.9 °C 1007 hPa Calm   -1607.7 km/h 99 % 0.25 mm 0 W/m2
03:21 7.1 °C 6.9 °C 1007 hPa Calm   -1607.7 km/h 99 % 0.25 mm 0 W/m2
03:26 7.1 °C 6.9 °C 1006.7 hPa Calm   -1607.7 km/h 99 % 0.25 mm 0 W/m2
03:31 7.1 °C 6.9 °C 1006.7 hPa Calm   -1607.7 km/h 99 % 0.25 mm 0 W/m2
03:36 7.1 °C 6.9 °C 1006.7 hPa Calm   -1607.7 km/h 99 % 0.25 mm 0 W/m2
03:41 7.2 °C 7 °C 1006.7 hPa Calm   -1607.7 km/h 99 % 0.51 mm 0 W/m2
03:46 7.2 °C 7 °C 1006.7 hPa Calm   -1607.7 km/h 99 % 0.51 mm 0 W/m2
03:51 7.2 °C 7 °C 1006.7 hPa Calm   -1607.7 km/h 99 % 0.51 mm 0 W/m2
03:56 7.2 °C 7 °C 1006.3 hPa Calm   -1607.7 km/h 99 % 0.51 mm 0 W/m2
04:01 7.2 °C 7 °C 1006.3 hPa Calm   -1607.7 km/h 99 % 0.51 mm 0 W/m2
04:06 7.2 °C 7 °C 1006.3 hPa Calm   -1607.7 km/h 99 % 0.51 mm 0 W/m2
04:11 7.2 °C 7.1 °C 1006.3 hPa Calm   -1607.7 km/h 99 % 0.51 mm 0 W/m2
04:16 7.2 °C 7.1 °C 1006.3 hPa Calm   -1607.7 km/h 99 % 0.51 mm 0 W/m2
04:21 7.2 °C 7.1 °C 1006.3 hPa Calm   -1607.7 km/h 99 % 0.51 mm 0 W/m2
04:26 7.2 °C 7.1 °C 1006.3 hPa Calm   -1607.7 km/h 99 % 0.51 mm 0 W/m2
04:31 7.2 °C 7.1 °C 1006.3 hPa Calm   -1607.7 km/h 99 % 0.51 mm 0 W/m2
04:36 7.2 °C 7.1 °C 1006.3 hPa Calm   -1607.7 km/h 99 % 0.51 mm 0 W/m2
04:41 7.1 °C 6.9 °C 1006.3 hPa Calm   -1607.7 km/h 99 % 0.51 mm 0 W/m2
04:46 7.1 °C 6.9 °C 1006.3 hPa Calm   -1607.7 km/h 99 % 0.51 mm 0 W/m2
04:51 7.1 °C 6.9 °C 1006.3 hPa Calm   -1607.7 km/h 99 % 0.51 mm 0 W/m2
04:56 7.1 °C 6.9 °C 1006 hPa Calm   -1607.7 km/h 99 % 0.51 mm 0 W/m2
05:01 7.1 °C 6.9 °C 1006 hPa Calm   -1607.7 km/h 99 % 0.51 mm 0 W/m2
05:06 7.1 °C 6.9 °C 1006 hPa Calm   -1607.7 km/h 99 % 0.51 mm 0 W/m2
05:11 7 °C 6.8 °C 1006 hPa Calm   -1607.7 km/h 99 % 0.25 mm 0 W/m2
05:16 7 °C 6.8 °C 1006 hPa Calm   -1607.7 km/h 99 % 0.25 mm 0 W/m2
05:21 7 °C 6.8 °C 1006 hPa Calm   -1607.7 km/h 99 % 0.25 mm 0 W/m2
05:26 7.1 °C 6.9 °C 1006 hPa Calm   -1607.7 km/h 99 % 0 mm 0 W/m2
05:31 7.1 °C 6.9 °C 1006 hPa Calm   -1607.7 km/h 99 % 0 mm 0 W/m2
05:36 7.1 °C 6.9 °C 1006 hPa Calm   -1607.7 km/h 99 % 0 mm 0 W/m2
05:41 7.1 °C 6.9 °C 1006 hPa Calm   -1607.7 km/h 99 % 0 mm 0 W/m2
05:46 7.1 °C 6.9 °C 1006 hPa Calm   -1607.7 km/h 99 % 0 mm 0 W/m2
05:51 7.1 °C 6.9 °C 1006 hPa Calm   -1607.7 km/h 99 % 0 mm 0 W/m2
05:56 6.9 °C 6.8 °C 1006 hPa Calm   -1607.7 km/h 99 % 0 mm 0 W/m2
06:01 6.9 °C 6.8 °C 1006 hPa Calm   -1607.7 km/h 99 % 0 mm 0 W/m2
06:06 6.9 °C 6.8 °C 1006 hPa Calm   -1607.7 km/h 99 % 0 mm 0 W/m2
06:11 6.9 °C 6.7 °C 1005.6 hPa Calm   -1607.7 km/h 99 % 0.25 mm 0 W/m2
06:16 6.9 °C 6.7 °C 1005.6 hPa Calm   -1607.7 km/h 99 % 0.25 mm 0 W/m2
06:21 6.9 °C 6.7 °C 1005.6 hPa Calm   -1607.7 km/h 99 % 0.25 mm 0 W/m2
06:26 6.8 °C 6.7 °C 1005.6 hPa Calm   -1607.7 km/h 99 % 0.25 mm 0 W/m2
06:31 6.8 °C 6.7 °C 1005.6 hPa Calm   -1607.7 km/h 99 % 0.25 mm 0 W/m2
06:36 6.8 °C 6.7 °C 1005.6 hPa Calm   -1607.7 km/h 99 % 0.25 mm 0 W/m2
06:41 6.8 °C 6.7 °C 1005.6 hPa Calm   -1607.7 km/h 99 % 0.51 mm 0 W/m2
06:46 6.8 °C 6.7 °C 1005.6 hPa Calm   -1607.7 km/h 99 % 0.51 mm 0 W/m2
06:51 6.8 °C 6.7 °C 1005.6 hPa Calm   -1607.7 km/h 99 % 0.51 mm 0 W/m2
06:56 6.7 °C 6.6 °C 1005.6 hPa Calm   -1607.7 km/h 99 % 0.51 mm 0 W/m2
07:01 6.7 °C 6.6 °C 1005.6 hPa Calm   -1607.7 km/h 99 % 0.51 mm 0 W/m2
07:06 6.7 °C 6.6 °C 1005.6 hPa Calm   -1607.7 km/h 99 % 0.51 mm 0 W/m2
07:11 6.7 °C 6.5 °C 1005.3 hPa Calm   -1607.7 km/h 99 % 0.25 mm 0 W/m2
07:16 6.7 °C 6.5 °C 1005.3 hPa Calm   -1607.7 km/h 99 % 0.25 mm 0 W/m2
07:21 6.7 °C 6.5 °C 1005.3 hPa Calm   -1607.7 km/h 99 % 0.25 mm 0 W/m2
07:26 6.7 °C 6.5 °C 1005.6 hPa Calm   -1607.7 km/h 99 % 0.25 mm 0 W/m2
07:31 6.7 °C 6.5 °C 1005.6 hPa Calm   -1607.7 km/h 99 % 0.25 mm 0 W/m2
07:36 6.7 °C 6.5 °C 1005.6 hPa Calm   -1607.7 km/h 99 % 0.25 mm 0 W/m2
07:41 6.7 °C 6.5 °C 1005.3 hPa Calm   -1607.7 km/h 99 % 0 mm 0 W/m2
07:46 6.7 °C 6.5 °C 1005.3 hPa Calm   -1607.7 km/h 99 % 0 mm 0 W/m2
07:51 6.7 °C 6.5 °C 1005.3 hPa Calm   -1607.7 km/h 99 % 0 mm 0 W/m2
07:56 6.7 °C 6.5 °C 1005.3 hPa Calm   -1607.7 km/h 99 % 0 mm 0 W/m2
08:01 6.7 °C 6.5 °C 1005.3 hPa Calm   -1607.7 km/h 99 % 0 mm 0 W/m2
08:06 6.7 °C 6.5 °C 1005.3 hPa Calm   -1607.7 km/h 99 % 0 mm 0 W/m2
08:11 6.7 °C 6.5 °C 1005.3 hPa Calm   -1607.7 km/h 99 % 0 mm 5 W/m2
08:16 6.7 °C 6.5 °C 1005.3 hPa Calm   -1607.7 km/h 99 % 0 mm 5 W/m2
08:21 6.7 °C 6.5 °C 1005.3 hPa Calm   -1607.7 km/h 99 % 0 mm 5 W/m2
08:26 6.7 °C 6.5 °C 1005.3 hPa Calm   -1607.7 km/h 99 % 0 mm 11 W/m2
08:31 6.7 °C 6.5 °C 1005.3 hPa Calm   -1607.7 km/h 99 % 0 mm 11 W/m2
08:36 6.7 °C 6.5 °C 1005.3 hPa Calm   -1607.7 km/h 99 % 0 mm 11 W/m2
08:41 6.7 °C 6.5 °C 1005.3 hPa Calm   -1607.7 km/h 99 % 0 mm 17 W/m2
08:46 6.7 °C 6.5 °C 1005.3 hPa Calm   -1607.7 km/h 99 % 0 mm 17 W/m2
08:51 6.7 °C 6.5 °C 1005.3 hPa Calm   -1607.7 km/h 99 % 0 mm 17 W/m2
08:56 6.7 °C 6.6 °C 1005 hPa Calm   -1607.7 km/h 99 % 0 mm 23 W/m2
09:01 6.7 °C 6.6 °C 1005 hPa Calm   -1607.7 km/h 99 % 0 mm 23 W/m2
09:06 6.7 °C 6.6 °C 1005 hPa Calm   -1607.7 km/h 99 % 0 mm 23 W/m2
09:11 6.7 °C 6.5 °C 1005 hPa Calm   -1607.7 km/h 99 % 0 mm 31 W/m2
09:16 6.7 °C 6.5 °C 1005 hPa Calm   -1607.7 km/h 99 % 0 mm 31 W/m2
09:21 6.7 °C 6.5 °C 1005 hPa Calm   -1607.7 km/h 99 % 0 mm 31 W/m2
09:26 6.8 °C 6.6 °C 1005 hPa Calm   -1607.7 km/h 99 % 0 mm 46 W/m2
09:31 6.8 °C 6.6 °C 1005 hPa Calm   -1607.7 km/h 99 % 0 mm 46 W/m2
09:36 6.8 °C 6.6 °C 1005 hPa Calm   -1607.7 km/h 99 % 0 mm 46 W/m2
09:41 7.1 °C 6.9 °C 1005 hPa Calm   -1607.7 km/h 99 % 0 mm 60 W/m2
09:46 7.1 °C 6.9 °C 1005 hPa Calm   -1607.7 km/h 99 % 0 mm 60 W/m2
09:51 7.1 °C 6.9 °C 1005 hPa Calm   -1607.7 km/h 99 % 0 mm 60 W/m2
09:56 7.4 °C 7.2 °C 1005 hPa Calm   -1607.7 km/h 99 % 0 mm 50 W/m2
10:01 7.4 °C 7.2 °C 1005 hPa Calm   -1607.7 km/h 99 % 0 mm 50 W/m2
10:06 7.4 °C 7.2 °C 1005 hPa Calm   -1607.7 km/h 99 % 0 mm 50 W/m2
10:11 7.6 °C 7.4 °C 1004.6 hPa Calm   -1607.7 km/h 99 % 0 mm 43 W/m2
10:16 7.6 °C 7.4 °C 1004.6 hPa Calm   -1607.7 km/h 99 % 0 mm 43 W/m2
10:21 7.6 °C 7.4 °C 1004.6 hPa Calm   -1607.7 km/h 99 % 0 mm 43 W/m2
10:26 7.7 °C 7.6 °C 1004.6 hPa Calm   -1607.7 km/h 99 % 0 mm 58 W/m2
10:31 7.7 °C 7.6 °C 1004.6 hPa Calm   -1607.7 km/h 99 % 0 mm 58 W/m2
10:36 7.7 °C 7.6 °C 1004.6 hPa Calm   -1607.7 km/h 99 % 0 mm 58 W/m2
10:41 7.9 °C 7.8 °C 1004.6 hPa Calm   -1607.7 km/h 99 % 0 mm 66 W/m2
10:46 7.9 °C 7.8 °C 1004.6 hPa Calm   -1607.7 km/h 99 % 0 mm 66 W/m2
10:51 7.9 °C 7.8 °C 1004.6 hPa Calm   -1607.7 km/h 99 % 0 mm 66 W/m2
10:56 8.2 °C 8.1 °C 1004.6 hPa Calm   -1607.7 km/h 99 % 0 mm 70 W/m2
11:01 8.2 °C 8.1 °C 1004.6 hPa Calm   -1607.7 km/h 99 % 0 mm 70 W/m2
11:06 8.2 °C 8.1 °C 1004.6 hPa Calm   -1607.7 km/h 99 % 0 mm 70 W/m2
11:11 8.3 °C 8.1 °C 1004.6 hPa SSW 1.6 km/h -1607.7 km/h 99 % 0 mm 89 W/m2
11:16 8.3 °C 8.1 °C 1004.6 hPa SSW 1.6 km/h -1607.7 km/h 99 % 0 mm 89 W/m2
11:21 8.3 °C 8.1 °C 1004.6 hPa SSW 1.6 km/h -1607.7 km/h 99 % 0 mm 89 W/m2
11:26 8.3 °C 8.2 °C 1004.3 hPa South 1.6 km/h -1607.7 km/h 99 % 0 mm 79 W/m2
11:31 8.3 °C 8.2 °C 1004.3 hPa South 1.6 km/h -1607.7 km/h 99 % 0 mm 79 W/m2
11:36 8.3 °C 8.2 °C 1004.3 hPa South 1.6 km/h -1607.7 km/h 99 % 0 mm 79 W/m2
11:41 8.4 °C 8.3 °C 1003.9 hPa South 3.2 km/h -1607.7 km/h 99 % 0 mm 86 W/m2
11:46 8.4 °C 8.3 °C 1003.9 hPa South 3.2 km/h -1607.7 km/h 99 % 0 mm 86 W/m2
11:51 8.4 °C 8.3 °C 1003.9 hPa South 3.2 km/h -1607.7 km/h 99 % 0 mm 86 W/m2
11:56 8.5 °C 8.3 °C 1003.6 hPa South 6.4 km/h -1607.7 km/h 99 % 0 mm 97 W/m2
12:01 8.5 °C 8.3 °C 1003.6 hPa South 6.4 km/h -1607.7 km/h 99 % 0 mm 97 W/m2
12:06 8.5 °C 8.3 °C 1003.6 hPa South 6.4 km/h -1607.7 km/h 99 % 0 mm 97 W/m2
12:11 8.6 °C 8.4 °C 1003.3 hPa South 8 km/h -1607.7 km/h 99 % 0 mm 110 W/m2
12:16 8.6 °C 8.4 °C 1003.3 hPa South 8 km/h -1607.7 km/h 99 % 0 mm 110 W/m2
12:21 8.6 °C 8.4 °C 1003.3 hPa South 8 km/h -1607.7 km/h 99 % 0 mm 110 W/m2
12:26 8.8 °C 8.6 °C 1003.3 hPa South 9.7 km/h -1607.7 km/h 99 % 0 mm 169 W/m2
12:31 8.8 °C 8.6 °C 1003.3 hPa South 9.7 km/h -1607.7 km/h 99 % 0 mm 169 W/m2
12:36 8.8 °C 8.6 °C 1003.3 hPa South 9.7 km/h -1607.7 km/h 99 % 0 mm 169 W/m2
12:41 9 °C 8.8 °C 1002.9 hPa South 9.7 km/h -1607.7 km/h 99 % 0 mm 157 W/m2
12:46 9 °C 8.8 °C 1002.9 hPa South 9.7 km/h -1607.7 km/h 99 % 0 mm 157 W/m2
12:51 9 °C 8.8 °C 1002.9 hPa South 9.7 km/h -1607.7 km/h 99 % 0 mm 157 W/m2
12:56 9 °C 8.8 °C 1002.6 hPa SSW 12.9 km/h -1607.7 km/h 99 % 0 mm 109 W/m2
13:01 9 °C 8.8 °C 1002.6 hPa SSW 12.9 km/h -1607.7 km/h 99 % 0 mm 109 W/m2
13:06 9 °C 8.8 °C 1002.6 hPa SSW 12.9 km/h -1607.7 km/h 99 % 0 mm 109 W/m2
13:11 9 °C 8.7 °C 1002.6 hPa South 12.9 km/h -1607.7 km/h 98 % 0 mm 94 W/m2
13:16 9 °C 8.7 °C 1002.6 hPa South 12.9 km/h -1607.7 km/h 98 % 0 mm 94 W/m2
13:21 9 °C 8.7 °C 1002.6 hPa South 12.9 km/h -1607.7 km/h 98 % 0 mm 94 W/m2
13:26 9.1 °C 8.7 °C 1002.3 hPa South 9.7 km/h -1607.7 km/h 97 % 0 mm 107 W/m2
13:31 9.1 °C 8.7 °C 1002.3 hPa South 9.7 km/h -1607.7 km/h 97 % 0 mm 107 W/m2
13:36 9.1 °C 8.7 °C 1002.3 hPa South 9.7 km/h -1607.7 km/h 97 % 0 mm 107 W/m2
13:41 9.3 °C 8.9 °C 1002.3 hPa South 9.7 km/h -1607.7 km/h 97 % 0 mm 197 W/m2
13:46 9.3 °C 8.9 °C 1002.3 hPa South 9.7 km/h -1607.7 km/h 97 % 0 mm 197 W/m2
13:51 9.3 °C 8.9 °C 1002.3 hPa South 9.7 km/h -1607.7 km/h 97 % 0 mm 197 W/m2
13:56 9.8 °C 9 °C 1001.9 hPa South 12.9 km/h -1607.7 km/h 95 % 0 mm 287 W/m2
14:01 9.8 °C 9 °C 1001.9 hPa South 12.9 km/h -1607.7 km/h 95 % 0 mm 287 W/m2
14:06 9.8 °C 9 °C 1001.9 hPa South 12.9 km/h -1607.7 km/h 95 % 0 mm 287 W/m2
14:11 10.2 °C 8.9 °C 1001.9 hPa SSW 12.9 km/h -1607.7 km/h 92 % 0 mm 189 W/m2
14:16 10.2 °C 8.9 °C 1001.9 hPa SSW 12.9 km/h -1607.7 km/h 92 % 0 mm 189 W/m2
14:21 10.2 °C 8.9 °C 1001.9 hPa SSW 12.9 km/h -1607.7 km/h 92 % 0 mm 189 W/m2
14:26 10.2 °C 8.6 °C 1001.6 hPa South 9.7 km/h -1607.7 km/h 90 % 0 mm 152 W/m2
14:31 10.2 °C 8.6 °C 1001.6 hPa South 9.7 km/h -1607.7 km/h 90 % 0 mm 152 W/m2
14:36 10.2 °C 8.6 °C 1001.6 hPa South 9.7 km/h -1607.7 km/h 90 % 0 mm 152 W/m2
14:41 10.1 °C 8.7 °C 1001.6 hPa SSE 9.7 km/h -1607.7 km/h 91 % 0 mm 77 W/m2
14:46 10.1 °C 8.7 °C 1001.6 hPa SSE 9.7 km/h -1607.7 km/h 91 % 0 mm 77 W/m2
14:51 10.1 °C 8.7 °C 1001.6 hPa SSE 9.7 km/h -1607.7 km/h 91 % 0 mm 77 W/m2
14:56 10 °C 8.4 °C 1001.2 hPa South 9.7 km/h -1607.7 km/h 90 % 0 mm 69 W/m2
15:01 10 °C 8.4 °C 1001.2 hPa South 9.7 km/h -1607.7 km/h 90 % 0 mm 69 W/m2
15:06 10 °C 8.4 °C 1001.2 hPa South 9.7 km/h -1607.7 km/h 90 % 0 mm 69 W/m2
15:11 9.9 °C 8.3 °C 1001.6 hPa South 8 km/h -1607.7 km/h 90 % 0 mm 32 W/m2
15:16 9.9 °C 8.3 °C 1001.6 hPa South 8 km/h -1607.7 km/h 90 % 0 mm 32 W/m2
15:21 9.9 °C 8.3 °C 1001.6 hPa South 8 km/h -1607.7 km/h 90 % 0 mm 32 W/m2
15:26 9.8 °C 8.2 °C 1001.2 hPa South 11.3 km/h -1607.7 km/h 90 % 0 mm 36 W/m2
15:31 9.8 °C 8.2 °C 1001.2 hPa South 11.3 km/h -1607.7 km/h 90 % 0 mm 36 W/m2
15:36 9.8 °C 8.2 °C 1001.2 hPa South 11.3 km/h -1607.7 km/h 90 % 0 mm 36 W/m2
15:41 9.7 °C 8.3 °C 1001.2 hPa SSE 9.7 km/h -1607.7 km/h 91 % 0 mm 36 W/m2
15:46 9.7 °C 8.3 °C 1001.2 hPa SSE 9.7 km/h -1607.7 km/h 91 % 0 mm 36 W/m2
15:51 9.7 °C 8.3 °C 1001.2 hPa SSE 9.7 km/h -1607.7 km/h 91 % 0 mm 36 W/m2
15:56 9.6 °C 8.2 °C 1000.9 hPa South 8 km/h -1607.7 km/h 91 % 0 mm 31 W/m2
16:01 9.6 °C 8.2 °C 1000.9 hPa South 8 km/h -1607.7 km/h 91 % 0 mm 31 W/m2
16:06 9.6 °C 8.2 °C 1000.9 hPa South 8 km/h -1607.7 km/h 91 % 0 mm 31 W/m2
16:11 9.4 °C 8 °C 1000.9 hPa SSE 9.7 km/h -1607.7 km/h 91 % 0 mm 27 W/m2
16:16 9.4 °C 8 °C 1000.9 hPa SSE 9.7 km/h -1607.7 km/h 91 % 0 mm 27 W/m2
16:21 9.4 °C 8 °C 1000.9 hPa SSE 9.7 km/h -1607.7 km/h 91 % 0 mm 27 W/m2
16:26 9.4 °C 8 °C 1000.6 hPa SSE 11.3 km/h -1607.7 km/h 91 % 0 mm 28 W/m2
16:31 9.4 °C 8 °C 1000.6 hPa SSE 11.3 km/h -1607.7 km/h 91 % 0 mm 28 W/m2
16:36 9.4 °C 8 °C 1000.6 hPa SSE 11.3 km/h -1607.7 km/h 91 % 0 mm 28 W/m2
16:41 9.2 °C 8 °C 1000.6 hPa SSE 11.3 km/h -1607.7 km/h 92 % 0 mm 12 W/m2
16:46 9.2 °C 8 °C 1000.6 hPa SSE 11.3 km/h -1607.7 km/h 92 % 0 mm 12 W/m2
16:51 9.2 °C 8 °C 1000.6 hPa SSE 11.3 km/h -1607.7 km/h 92 % 0 mm 12 W/m2
16:56 9.1 °C 7.8 °C 1000.2 hPa SSE 12.9 km/h -1607.7 km/h 92 % 0 mm 1 W/m2
17:01 9.1 °C 7.8 °C 1000.2 hPa SSE 12.9 km/h -1607.7 km/h 92 % 0 mm 1 W/m2
17:06 9.1 °C 7.8 °C 1000.2 hPa SSE 12.9 km/h -1607.7 km/h 92 % 0 mm 1 W/m2
17:11 8.9 °C 7.8 °C 1000.2 hPa SE 11.3 km/h -1607.7 km/h 93 % 0 mm 0 W/m2
17:16 8.9 °C 7.8 °C 1000.2 hPa SE 11.3 km/h -1607.7 km/h 93 % 0 mm 0 W/m2
17:21 8.9 °C 7.8 °C 1000.2 hPa SE 11.3 km/h -1607.7 km/h 93 % 0 mm 0 W/m2
17:26 8.8 °C 7.9 °C 1000.2 hPa SE 11.3 km/h -1607.7 km/h 94 % 0 mm 0 W/m2
17:31 8.8 °C 7.9 °C 1000.2 hPa SE 11.3 km/h -1607.7 km/h 94 % 0 mm 0 W/m2
17:36 8.8 °C 7.9 °C 1000.2 hPa SE 11.3 km/h -1607.7 km/h 94 % 0 mm 0 W/m2
17:41 8.8 °C 7.9 °C 1000.2 hPa SE 11.3 km/h -1607.7 km/h 94 % 0 mm 0 W/m2
17:46 8.8 °C 7.9 °C 1000.2 hPa SE 11.3 km/h -1607.7 km/h 94 % 0 mm 0 W/m2
17:51 8.8 °C 7.9 °C 1000.2 hPa SE 11.3 km/h -1607.7 km/h 94 % 0 mm 0 W/m2
17:56 8.9 °C 7.8 °C 1000.2 hPa SE 11.3 km/h -1607.7 km/h 93 % 0 mm 0 W/m2
18:01 8.9 °C 7.8 °C 1000.2 hPa SE 11.3 km/h -1607.7 km/h 93 % 0 mm 0 W/m2
18:06 8.9 °C 7.8 °C 1000.2 hPa SE 11.3 km/h -1607.7 km/h 93 % 0 mm 0 W/m2
18:11 8.9 °C 7.8 °C 1000.2 hPa SSE 11.3 km/h -1607.7 km/h 93 % 0 mm 0 W/m2
18:16 8.9 °C 7.8 °C 1000.2 hPa SSE 11.3 km/h -1607.7 km/h 93 % 0 mm 0 W/m2
18:21 8.9 °C 7.8 °C 1000.2 hPa SSE 11.3 km/h -1607.7 km/h 93 % 0 mm 0 W/m2
18:26 8.9 °C 7.8 °C 1000.2 hPa SE 12.9 km/h -1607.7 km/h 93 % 0 mm 0 W/m2
18:31 8.9 °C 7.8 °C 1000.2 hPa SE 12.9 km/h -1607.7 km/h 93 % 0 mm 0 W/m2
18:36 8.9 °C 7.8 °C 1000.2 hPa SE 12.9 km/h -1607.7 km/h 93 % 0 mm 0 W/m2
18:41 8.9 °C 7.8 °C 1000.2 hPa SSE 12.9 km/h -1607.7 km/h 93 % 0 mm 0 W/m2
18:46 8.9 °C 7.8 °C 1000.2 hPa SSE 12.9 km/h -1607.7 km/h 93 % 0 mm 0 W/m2
18:51 8.9 °C 7.8 °C 1000.2 hPa SSE 12.9 km/h -1607.7 km/h 93 % 0 mm 0 W/m2
18:56 8.9 °C 7.9 °C 999.9 hPa SSE 14.5 km/h -1607.7 km/h 93 % 0 mm 0 W/m2
19:01 8.9 °C 7.9 °C 999.9 hPa SSE 14.5 km/h -1607.7 km/h 93 % 0 mm 0 W/m2
19:06 8.9 °C 7.9 °C 999.9 hPa SSE 14.5 km/h -1607.7 km/h 93 % 0 mm 0 W/m2
19:11 8.9 °C 8 °C 999.5 hPa SE 16.1 km/h -1607.7 km/h 94 % 0 mm 0 W/m2
19:16 8.9 °C 8 °C 999.5 hPa SE 16.1 km/h -1607.7 km/h 94 % 0 mm 0 W/m2
19:21 8.9 °C 8 °C 999.5 hPa SE 16.1 km/h -1607.7 km/h 94 % 0 mm 0 W/m2
19:26 8.8 °C 7.9 °C 999.5 hPa SE 14.5 km/h -1607.7 km/h 94 % 0 mm 0 W/m2
19:31 8.8 °C 7.9 °C 999.5 hPa SE 14.5 km/h -1607.7 km/h 94 % 0 mm 0 W/m2
19:36 8.8 °C 7.9 °C 999.5 hPa SE 14.5 km/h -1607.7 km/h 94 % 0 mm 0 W/m2
19:41 8.8 °C 7.9 °C 999.2 hPa SE 16.1 km/h -1607.7 km/h 94 % 0 mm 0 W/m2
19:46 8.8 °C 7.9 °C 999.2 hPa SE 16.1 km/h -1607.7 km/h 94 % 0 mm 0 W/m2
19:51 8.8 °C 7.9 °C 999.2 hPa SE 16.1 km/h -1607.7 km/h 94 % 0 mm 0 W/m2
19:56 8.8 °C 7.8 °C 998.9 hPa SE 14.5 km/h -1607.7 km/h 93 % 0 mm 0 W/m2
20:01 8.8 °C 7.8 °C 998.9 hPa SE 14.5 km/h -1607.7 km/h 93 % 0 mm 0 W/m2
20:06 8.8 °C 7.8 °C 998.9 hPa SE 14.5 km/h -1607.7 km/h 93 % 0 mm 0 W/m2
20:11 8.8 °C 7.8 °C 998.9 hPa SSE 12.9 km/h -1607.7 km/h 93 % 0 mm 0 W/m2
20:16 8.8 °C 7.8 °C 998.9 hPa SSE 12.9 km/h -1607.7 km/h 93 % 0 mm 0 W/m2
20:21 8.8 °C 7.8 °C 998.9 hPa SSE 12.9 km/h -1607.7 km/h 93 % 0 mm 0 W/m2
20:26 8.9 °C 7.8 °C 998.5 hPa SSE 12.9 km/h -1607.7 km/h 93 % 0 mm 0 W/m2
20:31 8.9 °C 7.8 °C 998.5 hPa SSE 12.9 km/h -1607.7 km/h 93 % 0 mm 0 W/m2
20:36 8.9 °C 7.8 °C 998.5 hPa SSE 12.9 km/h -1607.7 km/h 93 % 0 mm 0 W/m2
20:41 9 °C 7.8 °C 998.5 hPa SSE 12.9 km/h -1607.7 km/h 92 % 0 mm 0 W/m2
20:46 9 °C 7.8 °C 998.5 hPa SSE 12.9 km/h -1607.7 km/h 92 % 0 mm 0 W/m2
20:51 9 °C 7.8 °C 998.5 hPa SSE 12.9 km/h -1607.7 km/h 92 % 0 mm 0 W/m2
20:56 9.1 °C 7.9 °C 998.2 hPa SSE 14.5 km/h -1607.7 km/h 92 % 0 mm 0 W/m2
21:01 9.1 °C 7.9 °C 998.2 hPa SSE 14.5 km/h -1607.7 km/h 92 % 0 mm 0 W/m2
21:06 9.1 °C 7.9 °C 998.2 hPa SSE 14.5 km/h -1607.7 km/h 92 % 0 mm 0 W/m2
21:11 9.2 °C 7.9 °C 998.5 hPa SSE 14.5 km/h -1607.7 km/h 92 % 0 mm 0 W/m2
21:16 9.2 °C 7.9 °C 998.5 hPa SSE 14.5 km/h -1607.7 km/h 92 % 0 mm 0 W/m2
21:21 9.2 °C 7.9 °C 998.5 hPa SSE 14.5 km/h -1607.7 km/h 92 % 0 mm 0 W/m2
21:26 9.2 °C 8 °C 998.2 hPa South 16.1 km/h -1607.7 km/h 92 % 0 mm 0 W/m2
21:31 9.2 °C 8 °C 998.2 hPa South 16.1 km/h -1607.7 km/h 92 % 0 mm 0 W/m2
21:36 9.2 °C 8 °C 998.2 hPa South 16.1 km/h -1607.7 km/h 92 % 0 mm 0 W/m2
21:41 9.2 °C 7.8 °C 998.2 hPa South 16.1 km/h -1607.7 km/h 91 % 0 mm 0 W/m2
21:46 9.2 °C 7.8 °C 998.2 hPa South 16.1 km/h -1607.7 km/h 91 % 0 mm 0 W/m2
21:51 9.2 °C 7.8 °C 998.2 hPa South 16.1 km/h -1607.7 km/h 91 % 0 mm 0 W/m2
21:56 9.2 °C 7.8 °C 998.2 hPa South 12.9 km/h -1607.7 km/h 91 % 0 mm 0 W/m2
22:01 9.2 °C 7.8 °C 998.2 hPa South 12.9 km/h -1607.7 km/h 91 % 0 mm 0 W/m2
22:06 9.2 °C 7.8 °C 998.2 hPa South 12.9 km/h -1607.7 km/h 91 % 0 mm 0 W/m2
22:11 9.2 °C 7.9 °C 997.9 hPa SSE 12.9 km/h -1607.7 km/h 92 % 0 mm 0 W/m2
22:16 9.2 °C 7.9 °C 997.9 hPa SSE 12.9 km/h -1607.7 km/h 92 % 0 mm 0 W/m2
22:21 9.2 °C 7.9 °C 997.9 hPa SSE 12.9 km/h -1607.7 km/h 92 % 0 mm 0 W/m2
22:26 9.1 °C 7.7 °C 997.9 hPa SSE 11.3 km/h -1607.7 km/h 91 % 0 mm 0 W/m2
22:31 9.1 °C 7.7 °C 997.9 hPa SSE 11.3 km/h -1607.7 km/h 91 % 0 mm 0 W/m2
22:36 9.1 °C 7.7 °C 997.9 hPa SSE 11.3 km/h -1607.7 km/h 91 % 0 mm 0 W/m2
22:41 9.1 °C 7.7 °C 997.9 hPa South 11.3 km/h -1607.7 km/h 91 % 0 mm 0 W/m2
22:46 9.1 °C 7.7 °C 997.9 hPa South 11.3 km/h -1607.7 km/h 91 % 0 mm 0 W/m2
22:51 9.1 °C 7.7 °C 997.9 hPa South 11.3 km/h -1607.7 km/h 91 % 0 mm 0 W/m2
22:56 9.2 °C 7.6 °C 997.9 hPa South 8 km/h -1607.7 km/h 90 % 0 mm 0 W/m2
23:01 9.2 °C 7.6 °C 997.9 hPa South 8 km/h -1607.7 km/h 90 % 0 mm 0 W/m2
23:06 9.2 °C 7.6 °C 997.9 hPa South 8 km/h -1607.7 km/h 90 % 0 mm 0 W/m2
23:11 9.2 °C 7.4 °C 997.9 hPa SSW 12.9 km/h -1607.7 km/h 89 % 0 mm 0 W/m2
23:16 9.2 °C 7.4 °C 997.9 hPa SSW 12.9 km/h -1607.7 km/h 89 % 0 mm 0 W/m2
23:21 9.2 °C 7.4 °C 997.9 hPa SSW 12.9 km/h -1607.7 km/h 89 % 0 mm 0 W/m2
23:26 9.2 °C 7.3 °C 997.9 hPa SSW 16.1 km/h -1607.7 km/h 88 % 0 mm 0 W/m2
23:31 9.2 °C 7.3 °C 997.9 hPa SSW 16.1 km/h -1607.7 km/h 88 % 0 mm 0 W/m2
23:36 9.2 °C 7.3 °C 997.9 hPa SSW 16.1 km/h -1607.7 km/h 88 % 0 mm 0 W/m2
23:41 9.2 °C 7.4 °C 997.9 hPa SSW 14.5 km/h -1607.7 km/h 89 % 0 mm 0 W/m2
23:46 9.2 °C 7.4 °C 997.9 hPa SSW 14.5 km/h -1607.7 km/h 89 % 0 mm 0 W/m2
23:51 9.2 °C 7.4 °C 997.9 hPa SSW 14.5 km/h -1607.7 km/h 89 % 0 mm 0 W/m2
23:56 9 °C 7.3 °C 997.9 hPa SSW 11.3 km/h -1607.7 km/h 89 % 0 mm 0 W/m2
Delerius-Weather
Compliments of Weather Underground - 2.25 mb

Data updates at regular intervals.